This is the latest recevied weather packets stored in our database for station/object LU5DTF-1. If no packets are shown the sender has not sent any weather packets the latest 10 day(s).
| Time | Temp. | Humidity | Pressure | Rain* | Wind** | Luminosity | Snow |
|---|---|---|---|---|---|---|---|
| 1778009101 | 17.78° C | 66% | 1013.7 hPa | 0 mm | - | - | - |
| 1778008801 | 17.78° C | 65% | 1013.6 hPa | 0 mm | - | - | - |
| 1778008501 | 18.33° C | 62% | 1013.7 hPa | 0 mm | - | - | - |
| 1778008202 | 18.89° C | 63% | 1013.7 hPa | 0 mm | - | - | - |
| 1778007901 | 18.89° C | 62% | 1013.8 hPa | 0 mm | - | - | - |
| 1778006401 | 19.44° C | 60% | 1013.7 hPa | 0 mm | - | - | - |
| 1778006101 | 19.44° C | 58% | 1013.6 hPa | 0 mm | - | - | - |
| 1778005801 | 18.89° C | 59% | 1013.8 hPa | 0 mm | - | - | - |
| 1778005501 | 19.44° C | 59% | 1013.7 hPa | 0 mm | - | - | - |
| 1778004901 | 18.89° C | 60% | 1013.6 hPa | 0 mm | - | - | - |
| 1778004301 | 18.89° C | 61% | 1013.8 hPa | 0 mm | - | - | - |
| 1778002801 | 18.33° C | 61% | 1013.4 hPa | 0 mm | - | - | - |
| 1778002501 | 18.89° C | 61% | 1013.1 hPa | 0 mm | - | - | - |
| 1778002201 | 18.89° C | 60% | 1013.2 hPa | 0 mm | - | - | - |
| 1778001901 | 18.89° C | 59% | 1013.3 hPa | 0 mm | - | - | - |
| 1778001602 | 18.89° C | 59% | 1013.3 hPa | 0 mm | - | - | - |
| 1778001301 | 18.89° C | 59% | 1013 hPa | 0 mm | - | - | - |
| 1778001002 | 18.89° C | 59% | 1013.1 hPa | 0 mm | - | - | - |
| 1778000701 | 18.89° C | 62% | 1013.2 hPa | 0 mm | - | - | - |
| 1777999201 | 18.33° C | 71% | 1013.4 hPa | 0 mm | - | - | - |
| 1777998902 | 18.33° C | 71% | 1013.4 hPa | 0 mm | - | - | - |
| 1777998601 | 18.33° C | 71% | 1013.4 hPa | 0 mm | - | - | - |
| 1777998301 | 18.33° C | 70% | 1013.2 hPa | 0 mm | - | - | - |
| 1777998001 | 18.89° C | 68% | 1013.4 hPa | 0 mm | - | - | - |
| 1777997401 | 20.56° C | 61% | 1013.3 hPa | 0 mm | - | - | - |
* Rain latest hour (hover to see other rain measurements)
** Current wind speed in m/s (hover to see current wind gust speed)